sensor_id;sensor_type;location;lat;lon;timestamp;temperature;humidity
56240;DHT22;42154;51.992;5.896;2023-06-10T00:01:44;22.80;78.60
56240;DHT22;42154;51.992;5.896;2023-06-10T00:04:16;22.80;78.60
56240;DHT22;42154;51.992;5.896;2023-06-10T00:06:44;22.70;78.80
56240;DHT22;42154;51.992;5.896;2023-06-10T00:09:10;22.70;79.00
56240;DHT22;42154;51.992;5.896;2023-06-10T00:11:37;22.70;79.00
56240;DHT22;42154;51.992;5.896;2023-06-10T00:14:03;22.60;79.00
56240;DHT22;42154;51.992;5.896;2023-06-10T00:16:29;22.60;79.00
56240;DHT22;42154;51.992;5.896;2023-06-10T00:18:56;22.50;79.00
56240;DHT22;42154;51.992;5.896;2023-06-10T00:21:26;22.50;78.90
56240;DHT22;42154;51.992;5.896;2023-06-10T00:23:52;22.40;79.00
56240;DHT22;42154;51.992;5.896;2023-06-10T00:26:18;22.40;79.00
56240;DHT22;42154;51.992;5.896;2023-06-10T00:28:44;22.40;78.90
56240;DHT22;42154;51.992;5.896;2023-06-10T00:31:10;22.30;78.40
56240;DHT22;42154;51.992;5.896;2023-06-10T00:33:38;22.30;78.30
56240;DHT22;42154;51.992;5.896;2023-06-10T00:36:04;22.30;78.20
56240;DHT22;42154;51.992;5.896;2023-06-10T00:38:29;22.30;77.90
56240;DHT22;42154;51.992;5.896;2023-06-10T00:40:55;22.30;77.70
56240;DHT22;42154;51.992;5.896;2023-06-10T00:43:21;22.20;77.50
56240;DHT22;42154;51.992;5.896;2023-06-10T00:45:47;22.20;77.40
56240;DHT22;42154;51.992;5.896;2023-06-10T00:48:13;22.10;77.30
56240;DHT22;42154;51.992;5.896;2023-06-10T00:50:39;22.10;77.00
56240;DHT22;42154;51.992;5.896;2023-06-10T00:53:05;22.10;76.90
56240;DHT22;42154;51.992;5.896;2023-06-10T00:55:32;22.10;76.90
56240;DHT22;42154;51.992;5.896;2023-06-10T00:57:58;22.10;76.80
56240;DHT22;42154;51.992;5.896;2023-06-10T01:00:25;22.00;76.80
56240;DHT22;42154;51.992;5.896;2023-06-10T01:02:51;22.00;76.80
56240;DHT22;42154;51.992;5.896;2023-06-10T01:05:21;22.00;76.80
56240;DHT22;42154;51.992;5.896;2023-06-10T01:07:55;22.00;76.80
56240;DHT22;42154;51.992;5.896;2023-06-10T01:13:07;21.90;76.80
56240;DHT22;42154;51.992;5.896;2023-06-10T01:15:37;21.90;76.90
56240;DHT22;42154;51.992;5.896;2023-06-10T01:18:07;21.80;76.90
56240;DHT22;42154;51.992;5.896;2023-06-10T01:20:41;21.80;76.90
56240;DHT22;42154;51.992;5.896;2023-06-10T01:23:10;21.80;77.00
56240;DHT22;42154;51.992;5.896;2023-06-10T01:25:47;21.70;76.90
56240;DHT22;42154;51.992;5.896;2023-06-10T01:28:48;21.70;76.90
56240;DHT22;42154;51.992;5.896;2023-06-10T01:33:52;21.60;77.40
56240;DHT22;42154;51.992;5.896;2023-06-10T01:36:19;21.60;77.60
56240;DHT22;42154;51.992;5.896;2023-06-10T01:38:48;21.50;77.50
56240;DHT22;42154;51.992;5.896;2023-06-10T01:41:18;21.50;77.70
56240;DHT22;42154;51.992;5.896;2023-06-10T01:43:47;21.50;77.90
56240;DHT22;42154;51.992;5.896;2023-06-10T01:46:13;21.40;78.00
56240;DHT22;42154;51.992;5.896;2023-06-10T01:48:42;21.40;78.20
56240;DHT22;42154;51.992;5.896;2023-06-10T01:51:08;21.30;78.20
56240;DHT22;42154;51.992;5.896;2023-06-10T01:53:35;21.30;78.40
56240;DHT22;42154;51.992;5.896;2023-06-10T01:56:01;21.30;78.60
56240;DHT22;42154;51.992;5.896;2023-06-10T01:58:28;21.20;78.70
56240;DHT22;42154;51.992;5.896;2023-06-10T02:00:54;21.20;78.90
56240;DHT22;42154;51.992;5.896;2023-06-10T02:03:20;21.20;79.20
56240;DHT22;42154;51.992;5.896;2023-06-10T02:05:46;21.10;79.30
56240;DHT22;42154;51.992;5.896;2023-06-10T02:08:12;21.10;79.60
56240;DHT22;42154;51.992;5.896;2023-06-10T02:10:37;21.00;79.90
56240;DHT22;42154;51.992;5.896;2023-06-10T02:13:03;21.00;80.10
56240;DHT22;42154;51.992;5.896;2023-06-10T02:15:29;21.00;80.60
56240;DHT22;42154;51.992;5.896;2023-06-10T02:17:55;21.00;80.90
56240;DHT22;42154;51.992;5.896;2023-06-10T02:20:22;20.90;81.20
56240;DHT22;42154;51.992;5.896;2023-06-10T02:22:48;20.90;81.40
56240;DHT22;42154;51.992;5.896;2023-06-10T02:25:13;20.80;81.70
56240;DHT22;42154;51.992;5.896;2023-06-10T02:27:39;20.80;81.90
56240;DHT22;42154;51.992;5.896;2023-06-10T02:30:06;20.80;82.40
56240;DHT22;42154;51.992;5.896;2023-06-10T02:32:34;20.80;82.60
56240;DHT22;42154;51.992;5.896;2023-06-10T02:35:02;20.70;82.70
56240;DHT22;42154;51.992;5.896;2023-06-10T02:37:28;20.70;83.20
56240;DHT22;42154;51.992;5.896;2023-06-10T02:39:55;20.70;83.50
56240;DHT22;42154;51.992;5.896;2023-06-10T02:42:21;20.70;83.70
56240;DHT22;42154;51.992;5.896;2023-06-10T02:44:48;20.60;83.70
56240;DHT22;42154;51.992;5.896;2023-06-10T02:47:21;20.60;84.20
56240;DHT22;42154;51.992;5.896;2023-06-10T02:49:47;20.60;84.40
56240;DHT22;42154;51.992;5.896;2023-06-10T02:52:13;20.60;84.70
56240;DHT22;42154;51.992;5.896;2023-06-10T02:54:39;20.50;84.80
56240;DHT22;42154;51.992;5.896;2023-06-10T02:57:07;20.50;85.00
56240;DHT22;42154;51.992;5.896;2023-06-10T02:59:33;20.50;85.20
56240;DHT22;42154;51.992;5.896;2023-06-10T03:01:59;20.40;85.20
56240;DHT22;42154;51.992;5.896;2023-06-10T03:04:28;20.40;85.50
56240;DHT22;42154;51.992;5.896;2023-06-10T03:07:01;20.40;85.60
56240;DHT22;42154;51.992;5.896;2023-06-10T03:09:32;20.30;85.60
56240;DHT22;42154;51.992;5.896;2023-06-10T03:11:59;20.40;85.60
56240;DHT22;42154;51.992;5.896;2023-06-10T03:14:28;20.30;85.80
56240;DHT22;42154;51.992;5.896;2023-06-10T03:16:54;20.30;85.90
56240;DHT22;42154;51.992;5.896;2023-06-10T03:19:22;20.30;86.00
56240;DHT22;42154;51.992;5.896;2023-06-10T03:22:07;20.30;86.50
56240;DHT22;42154;51.992;5.896;2023-06-10T03:24:36;20.20;86.30
56240;DHT22;42154;51.992;5.896;2023-06-10T03:27:03;20.20;86.60
56240;DHT22;42154;51.992;5.896;2023-06-10T03:29:31;20.10;86.70
56240;DHT22;42154;51.992;5.896;2023-06-10T03:31:57;20.10;86.90
56240;DHT22;42154;51.992;5.896;2023-06-10T03:34:23;20.00;87.00
56240;DHT22;42154;51.992;5.896;2023-06-10T03:36:50;20.00;87.10
56240;DHT22;42154;51.992;5.896;2023-06-10T03:39:16;20.00;87.60
56240;DHT22;42154;51.992;5.896;2023-06-10T03:41:41;19.90;87.70
56240;DHT22;42154;51.992;5.896;2023-06-10T03:44:09;19.90;87.90
56240;DHT22;42154;51.992;5.896;2023-06-10T03:46:34;19.80;88.10
56240;DHT22;42154;51.992;5.896;2023-06-10T03:49:01;19.80;88.10
56240;DHT22;42154;51.992;5.896;2023-06-10T03:51:27;19.80;88.20
56240;DHT22;42154;51.992;5.896;2023-06-10T03:53:52;19.90;88.40
56240;DHT22;42154;51.992;5.896;2023-06-10T03:56:18;20.10;88.10
56240;DHT22;42154;51.992;5.896;2023-06-10T03:58:44;20.50;87.30
56240;DHT22;42154;51.992;5.896;2023-06-10T04:01:10;20.90;86.10
56240;DHT22;42154;51.992;5.896;2023-06-10T04:03:39;21.30;85.10
56240;DHT22;42154;51.992;5.896;2023-06-10T04:06:07;21.70;83.90
56240;DHT22;42154;51.992;5.896;2023-06-10T04:08:33;22.20;82.50
56240;DHT22;42154;51.992;5.896;2023-06-10T04:10:59;22.50;81.80
56240;DHT22;42154;51.992;5.896;2023-06-10T04:13:26;22.90;80.80
56240;DHT22;42154;51.992;5.896;2023-06-10T04:15:55;23.20;79.50
56240;DHT22;42154;51.992;5.896;2023-06-10T04:18:21;23.30;79.20
56240;DHT22;42154;51.992;5.896;2023-06-10T04:20:48;23.60;78.40
56240;DHT22;42154;51.992;5.896;2023-06-10T04:23:14;23.90;77.70
56240;DHT22;42154;51.992;5.896;2023-06-10T04:25:42;24.00;77.30
56240;DHT22;42154;51.992;5.896;2023-06-10T04:28:08;24.20;77.10
56240;DHT22;42154;51.992;5.896;2023-06-10T04:30:35;24.30;76.70
56240;DHT22;42154;51.992;5.896;2023-06-10T04:33:01;24.60;76.40
56240;DHT22;42154;51.992;5.896;2023-06-10T04:35:27;24.70;75.70
56240;DHT22;42154;51.992;5.896;2023-06-10T04:37:54;24.90;75.50
56240;DHT22;42154;51.992;5.896;2023-06-10T04:40:20;25.20;75.00
56240;DHT22;42154;51.992;5.896;2023-06-10T04:42:47;25.40;74.10
56240;DHT22;42154;51.992;5.896;2023-06-10T04:45:13;25.60;74.00
56240;DHT22;42154;51.992;5.896;2023-06-10T04:47:39;25.80;73.20
56240;DHT22;42154;51.992;5.896;2023-06-10T04:50:06;26.00;73.10
56240;DHT22;42154;51.992;5.896;2023-06-10T04:52:32;26.30;72.70
56240;DHT22;42154;51.992;5.896;2023-06-10T04:54:59;26.40;71.60
56240;DHT22;42154;51.992;5.896;2023-06-10T04:57:25;26.00;71.80
56240;DHT22;42154;51.992;5.896;2023-06-10T04:59:52;25.40;73.30
56240;DHT22;42154;51.992;5.896;2023-06-10T05:02:18;24.70;75.10
56240;DHT22;42154;51.992;5.896;2023-06-10T05:04:43;24.10;76.90
56240;DHT22;42154;51.992;5.896;2023-06-10T05:07:09;23.50;78.10
56240;DHT22;42154;51.992;5.896;2023-06-10T05:09:35;23.10;79.40
56240;DHT22;42154;51.992;5.896;2023-06-10T05:12:01;22.90;80.30
56240;DHT22;42154;51.992;5.896;2023-06-10T05:14:28;22.70;80.80
56240;DHT22;42154;51.992;5.896;2023-06-10T05:16:54;22.70;81.30
56240;DHT22;42154;51.992;5.896;2023-06-10T05:19:19;22.60;81.50
56240;DHT22;42154;51.992;5.896;2023-06-10T05:21:45;22.50;81.50
56240;DHT22;42154;51.992;5.896;2023-06-10T05:24:11;22.30;82.00
56240;DHT22;42154;51.992;5.896;2023-06-10T05:26:37;22.20;82.50
56240;DHT22;42154;51.992;5.896;2023-06-10T05:29:04;22.10;83.10
56240;DHT22;42154;51.992;5.896;2023-06-10T05:31:30;22.20;83.10
56240;DHT22;42154;51.992;5.896;2023-06-10T05:33:57;22.20;83.30
56240;DHT22;42154;51.992;5.896;2023-06-10T05:36:23;22.20;83.30
56240;DHT22;42154;51.992;5.896;2023-06-10T05:38:50;22.20;83.20
56240;DHT22;42154;51.992;5.896;2023-06-10T05:41:16;22.30;83.20
56240;DHT22;42154;51.992;5.896;2023-06-10T05:43:42;22.20;83.10
56240;DHT22;42154;51.992;5.896;2023-06-10T05:46:08;22.20;83.40
56240;DHT22;42154;51.992;5.896;2023-06-10T05:48:33;22.20;83.50
56240;DHT22;42154;51.992;5.896;2023-06-10T05:50:59;22.20;83.70
56240;DHT22;42154;51.992;5.896;2023-06-10T05:53:25;22.30;83.60
56240;DHT22;42154;51.992;5.896;2023-06-10T05:55:50;22.30;83.60
56240;DHT22;42154;51.992;5.896;2023-06-10T05:58:17;22.30;83.90
56240;DHT22;42154;51.992;5.896;2023-06-10T06:00:43;22.30;83.20
56240;DHT22;42154;51.992;5.896;2023-06-10T06:03:09;22.30;83.40
56240;DHT22;42154;51.992;5.896;2023-06-10T06:05:36;22.20;83.20
56240;DHT22;42154;51.992;5.896;2023-06-10T06:08:06;22.20;83.70
56240;DHT22;42154;51.992;5.896;2023-06-10T06:10:32;22.40;83.80
56240;DHT22;42154;51.992;5.896;2023-06-10T06:12:58;22.50;83.60
56240;DHT22;42154;51.992;5.896;2023-06-10T06:15:24;22.60;83.40
56240;DHT22;42154;51.992;5.896;2023-06-10T06:17:50;22.70;82.40
56240;DHT22;42154;51.992;5.896;2023-06-10T06:20:22;22.70;82.70
56240;DHT22;42154;51.992;5.896;2023-06-10T06:22:47;22.80;83.00
56240;DHT22;42154;51.992;5.896;2023-06-10T06:25:13;22.90;82.70
56240;DHT22;42154;51.992;5.896;2023-06-10T06:27:39;23.00;82.30
56240;DHT22;42154;51.992;5.896;2023-06-10T06:30:05;23.10;81.80
56240;DHT22;42154;51.992;5.896;2023-06-10T06:32:31;23.00;81.40
56240;DHT22;42154;51.992;5.896;2023-06-10T06:34:57;23.00;81.80
56240;DHT22;42154;51.992;5.896;2023-06-10T06:37:25;23.00;81.70
56240;DHT22;42154;51.992;5.896;2023-06-10T06:39:58;22.90;81.50
56240;DHT22;42154;51.992;5.896;2023-06-10T06:42:24;22.90;82.30
56240;DHT22;42154;51.992;5.896;2023-06-10T06:44:57;22.90;82.60
56240;DHT22;42154;51.992;5.896;2023-06-10T06:47:23;23.00;82.70
56240;DHT22;42154;51.992;5.896;2023-06-10T06:49:49;23.20;82.70
56240;DHT22;42154;51.992;5.896;2023-06-10T06:52:15;23.20;81.80
56240;DHT22;42154;51.992;5.896;2023-06-10T06:54:41;23.20;81.80
56240;DHT22;42154;51.992;5.896;2023-06-10T06:57:07;23.20;81.80
56240;DHT22;42154;51.992;5.896;2023-06-10T06:59:33;23.30;82.10
56240;DHT22;42154;51.992;5.896;2023-06-10T07:01:59;23.40;81.90
56240;DHT22;42154;51.992;5.896;2023-06-10T07:04:25;23.40;81.70
56240;DHT22;42154;51.992;5.896;2023-06-10T07:06:51;23.50;81.80
56240;DHT22;42154;51.992;5.896;2023-06-10T07:09:16;23.70;81.90
56240;DHT22;42154;51.992;5.896;2023-06-10T07:11:43;23.70;81.70
56240;DHT22;42154;51.992;5.896;2023-06-10T07:14:09;23.80;80.60
56240;DHT22;42154;51.992;5.896;2023-06-10T07:16:34;23.80;80.50
56240;DHT22;42154;51.992;5.896;2023-06-10T07:19:00;23.80;80.90
56240;DHT22;42154;51.992;5.896;2023-06-10T07:21:26;23.90;81.10
56240;DHT22;42154;51.992;5.896;2023-06-10T07:23:54;24.10;80.20
56240;DHT22;42154;51.992;5.896;2023-06-10T07:26:22;24.10;79.80
56240;DHT22;42154;51.992;5.896;2023-06-10T07:28:47;24.10;80.30
56240;DHT22;42154;51.992;5.896;2023-06-10T07:31:13;24.30;80.30
56240;DHT22;42154;51.992;5.896;2023-06-10T07:33:39;24.50;80.20
56240;DHT22;42154;51.992;5.896;2023-06-10T07:36:06;24.50;80.00
56240;DHT22;42154;51.992;5.896;2023-06-10T07:38:32;24.60;79.70
56240;DHT22;42154;51.992;5.896;2023-06-10T07:40:57;24.70;79.40
56240;DHT22;42154;51.992;5.896;2023-06-10T07:43:24;24.80;78.40
56240;DHT22;42154;51.992;5.896;2023-06-10T07:45:50;24.80;77.20
56240;DHT22;42154;51.992;5.896;2023-06-10T07:48:16;24.80;78.30
56240;DHT22;42154;51.992;5.896;2023-06-10T07:50:41;24.80;78.50
56240;DHT22;42154;51.992;5.896;2023-06-10T07:53:07;24.90;78.80
56240;DHT22;42154;51.992;5.896;2023-06-10T07:55:33;25.10;78.90
56240;DHT22;42154;51.992;5.896;2023-06-10T07:57:59;25.20;77.60
56240;DHT22;42154;51.992;5.896;2023-06-10T08:00:25;25.30;77.90
56240;DHT22;42154;51.992;5.896;2023-06-10T08:02:50;25.40;76.50
56240;DHT22;42154;51.992;5.896;2023-06-10T08:05:17;25.40;77.00
56240;DHT22;42154;51.992;5.896;2023-06-10T08:07:45;25.40;77.00
56240;DHT22;42154;51.992;5.896;2023-06-10T08:10:11;25.40;76.70
56240;DHT22;42154;51.992;5.896;2023-06-10T08:12:37;25.40;76.50
56240;DHT22;42154;51.992;5.896;2023-06-10T08:15:03;25.50;76.90
56240;DHT22;42154;51.992;5.896;2023-06-10T08:17:31;25.70;76.80
56240;DHT22;42154;51.992;5.896;2023-06-10T08:19:57;25.80;76.60
56240;DHT22;42154;51.992;5.896;2023-06-10T08:22:23;25.90;76.20
56240;DHT22;42154;51.992;5.896;2023-06-10T08:24:48;26.00;76.00
56240;DHT22;42154;51.992;5.896;2023-06-10T08:27:14;26.10;76.10
56240;DHT22;42154;51.992;5.896;2023-06-10T08:29:40;26.20;75.10
56240;DHT22;42154;51.992;5.896;2023-06-10T08:32:06;26.20;74.50
56240;DHT22;42154;51.992;5.896;2023-06-10T08:34:35;26.20;74.70
56240;DHT22;42154;51.992;5.896;2023-06-10T08:37:04;26.20;74.10
56240;DHT22;42154;51.992;5.896;2023-06-10T08:39:30;26.20;74.70
56240;DHT22;42154;51.992;5.896;2023-06-10T08:42:11;26.30;75.20
56240;DHT22;42154;51.992;5.896;2023-06-10T08:44:42;26.40;75.60
56240;DHT22;42154;51.992;5.896;2023-06-10T08:47:15;26.50;74.90
56240;DHT22;42154;51.992;5.896;2023-06-10T08:49:44;26.70;74.90
56240;DHT22;42154;51.992;5.896;2023-06-10T08:52:17;26.70;73.80
56240;DHT22;42154;51.992;5.896;2023-06-10T08:54:51;26.60;73.30
56240;DHT22;42154;51.992;5.896;2023-06-10T08:57:18;26.60;72.90
56240;DHT22;42154;51.992;5.896;2023-06-10T08:59:47;26.50;72.90
56240;DHT22;42154;51.992;5.896;2023-06-10T09:02:15;26.50;73.00
56240;DHT22;42154;51.992;5.896;2023-06-10T09:04:42;26.50;73.10
56240;DHT22;42154;51.992;5.896;2023-06-10T09:07:10;26.70;73.80
56240;DHT22;42154;51.992;5.896;2023-06-10T09:09:36;26.80;73.30
56240;DHT22;42154;51.992;5.896;2023-06-10T09:12:03;26.90;72.80
56240;DHT22;42154;51.992;5.896;2023-06-10T09:14:29;27.00;73.10
56240;DHT22;42154;51.992;5.896;2023-06-10T09:16:55;27.20;73.30
56240;DHT22;42154;51.992;5.896;2023-06-10T09:19:25;27.40;73.40
56240;DHT22;42154;51.992;5.896;2023-06-10T09:21:52;27.50;72.30
56240;DHT22;42154;51.992;5.896;2023-06-10T09:24:18;27.60;72.60
56240;DHT22;42154;51.992;5.896;2023-06-10T09:26:44;27.60;72.20
56240;DHT22;42154;51.992;5.896;2023-06-10T09:29:11;27.70;72.10
56240;DHT22;42154;51.992;5.896;2023-06-10T09:31:39;27.70;71.30
56240;DHT22;42154;51.992;5.896;2023-06-10T09:34:12;27.80;71.50
56240;DHT22;42154;51.992;5.896;2023-06-10T09:36:39;27.80;71.60
56240;DHT22;42154;51.992;5.896;2023-06-10T09:39:14;27.90;70.80
56240;DHT22;42154;51.992;5.896;2023-06-10T09:41:44;27.90;70.40
56240;DHT22;42154;51.992;5.896;2023-06-10T09:44:17;27.80;70.40
56240;DHT22;42154;51.992;5.896;2023-06-10T09:46:50;27.90;70.60
56240;DHT22;42154;51.992;5.896;2023-06-10T09:49:17;28.00;69.10
56240;DHT22;42154;51.992;5.896;2023-06-10T09:51:52;27.90;69.10
56240;DHT22;42154;51.992;5.896;2023-06-10T09:54:19;27.90;69.60
56240;DHT22;42154;51.992;5.896;2023-06-10T09:56:49;28.00;69.70
56240;DHT22;42154;51.992;5.896;2023-06-10T09:59:15;28.20;69.70
56240;DHT22;42154;51.992;5.896;2023-06-10T10:01:41;28.20;69.00
56240;DHT22;42154;51.992;5.896;2023-06-10T10:04:07;28.20;69.30
56240;DHT22;42154;51.992;5.896;2023-06-10T10:06:34;28.30;68.80
56240;DHT22;42154;51.992;5.896;2023-06-10T10:09:00;28.40;69.10
56240;DHT22;42154;51.992;5.896;2023-06-10T10:11:27;28.50;67.00
56240;DHT22;42154;51.992;5.896;2023-06-10T10:13:53;28.50;67.20
56240;DHT22;42154;51.992;5.896;2023-06-10T10:16:21;28.50;66.60
56240;DHT22;42154;51.992;5.896;2023-06-10T10:18:56;28.50;66.50
56240;DHT22;42154;51.992;5.896;2023-06-10T10:21:28;28.60;66.60
56240;DHT22;42154;51.992;5.896;2023-06-10T10:26:31;28.80;66.10
56240;DHT22;42154;51.992;5.896;2023-06-10T10:29:13;28.80;65.60
56240;DHT22;42154;51.992;5.896;2023-06-10T10:31:42;29.00;65.90
56240;DHT22;42154;51.992;5.896;2023-06-10T10:34:13;29.10;64.30
56240;DHT22;42154;51.992;5.896;2023-06-10T10:36:41;29.10;63.50
56240;DHT22;42154;51.992;5.896;2023-06-10T10:39:07;29.10;62.50
56240;DHT22;42154;51.992;5.896;2023-06-10T10:41:34;29.10;62.00
56240;DHT22;42154;51.992;5.896;2023-06-10T10:44:02;29.10;62.90
56240;DHT22;42154;51.992;5.896;2023-06-10T10:46:30;29.20;63.50
56240;DHT22;42154;51.992;5.896;2023-06-10T10:49:07;29.30;62.50
56240;DHT22;42154;51.992;5.896;2023-06-10T10:51:34;29.40;61.00
56240;DHT22;42154;51.992;5.896;2023-06-10T10:54:11;29.40;60.40
56240;DHT22;42154;51.992;5.896;2023-06-10T10:56:38;29.50;60.20
56240;DHT22;42154;51.992;5.896;2023-06-10T10:59:04;29.50;60.60
56240;DHT22;42154;51.992;5.896;2023-06-10T11:01:41;29.70;60.30
56240;DHT22;42154;51.992;5.896;2023-06-10T11:04:08;29.70;60.00
56240;DHT22;42154;51.992;5.896;2023-06-10T11:06:36;29.80;60.00
56240;DHT22;42154;51.992;5.896;2023-06-10T11:09:26;29.80;59.00
56240;DHT22;42154;51.992;5.896;2023-06-10T11:11:58;29.90;58.90
56240;DHT22;42154;51.992;5.896;2023-06-10T11:14:29;29.70;59.10
56240;DHT22;42154;51.992;5.896;2023-06-10T11:16:59;29.80;58.80
56240;DHT22;42154;51.992;5.896;2023-06-10T11:19:35;29.80;58.30
56240;DHT22;42154;51.992;5.896;2023-06-10T11:22:05;29.80;58.20
56240;DHT22;42154;51.992;5.896;2023-06-10T11:24:31;29.70;58.80
56240;DHT22;42154;51.992;5.896;2023-06-10T11:27:22;29.80;59.30
56240;DHT22;42154;51.992;5.896;2023-06-10T11:32:35;30.00;57.70
56240;DHT22;42154;51.992;5.896;2023-06-10T11:35:04;29.90;57.50
56240;DHT22;42154;51.992;5.896;2023-06-10T11:37:29;29.90;58.30
56240;DHT22;42154;51.992;5.896;2023-06-10T11:39:56;30.00;58.80
56240;DHT22;42154;51.992;5.896;2023-06-10T11:42:24;30.10;58.20
56240;DHT22;42154;51.992;5.896;2023-06-10T11:44:52;30.10;57.40
56240;DHT22;42154;51.992;5.896;2023-06-10T11:47:19;30.00;57.10
56240;DHT22;42154;51.992;5.896;2023-06-10T11:49:49;29.90;57.70
56240;DHT22;42154;51.992;5.896;2023-06-10T11:52:30;29.90;58.00
56240;DHT22;42154;51.992;5.896;2023-06-10T11:54:57;30.00;58.40
56240;DHT22;42154;51.992;5.896;2023-06-10T11:57:23;30.10;58.00
56240;DHT22;42154;51.992;5.896;2023-06-10T11:59:49;30.10;58.00
56240;DHT22;42154;51.992;5.896;2023-06-10T12:02:16;30.10;57.70
56240;DHT22;42154;51.992;5.896;2023-06-10T12:04:42;30.20;58.10
56240;DHT22;42154;51.992;5.896;2023-06-10T12:07:07;30.30;57.60
56240;DHT22;42154;51.992;5.896;2023-06-10T12:09:33;30.30;57.70
56240;DHT22;42154;51.992;5.896;2023-06-10T12:12:02;30.40;57.30
56240;DHT22;42154;51.992;5.896;2023-06-10T12:14:56;30.50;57.10
56240;DHT22;42154;51.992;5.896;2023-06-10T12:17:43;30.60;56.70
56240;DHT22;42154;51.992;5.896;2023-06-10T12:20:28;30.60;57.00
56240;DHT22;42154;51.992;5.896;2023-06-10T12:22:54;30.70;57.00
56240;DHT22;42154;51.992;5.896;2023-06-10T12:25:28;30.80;57.30
56240;DHT22;42154;51.992;5.896;2023-06-10T12:27:56;30.80;56.40
56240;DHT22;42154;51.992;5.896;2023-06-10T12:30:24;30.80;56.40
56240;DHT22;42154;51.992;5.896;2023-06-10T12:32:52;30.80;56.90
56240;DHT22;42154;51.992;5.896;2023-06-10T12:35:23;30.80;56.10
56240;DHT22;42154;51.992;5.896;2023-06-10T12:37:58;30.70;56.40
56240;DHT22;42154;51.992;5.896;2023-06-10T12:40:32;30.70;57.10
56240;DHT22;42154;51.992;5.896;2023-06-10T12:42:58;30.80;56.70
56240;DHT22;42154;51.992;5.896;2023-06-10T12:45:32;30.80;56.90
56240;DHT22;42154;51.992;5.896;2023-06-10T12:50:42;30.90;56.60
56240;DHT22;42154;51.992;5.896;2023-06-10T12:53:10;31.00;56.50
56240;DHT22;42154;51.992;5.896;2023-06-10T12:55:38;31.10;56.50
56240;DHT22;42154;51.992;5.896;2023-06-10T12:58:04;31.10;55.80
56240;DHT22;42154;51.992;5.896;2023-06-10T13:00:30;31.10;55.70
56240;DHT22;42154;51.992;5.896;2023-06-10T13:02:57;31.10;55.90
56240;DHT22;42154;51.992;5.896;2023-06-10T13:05:23;31.20;55.70
56240;DHT22;42154;51.992;5.896;2023-06-10T13:07:49;31.20;55.80
56240;DHT22;42154;51.992;5.896;2023-06-10T13:10:16;31.20;55.30
56240;DHT22;42154;51.992;5.896;2023-06-10T13:12:42;31.20;54.40
56240;DHT22;42154;51.992;5.896;2023-06-10T13:15:08;31.10;54.80
56240;DHT22;42154;51.992;5.896;2023-06-10T13:17:34;31.10;55.10
56240;DHT22;42154;51.992;5.896;2023-06-10T13:20:05;31.20;55.40
56240;DHT22;42154;51.992;5.896;2023-06-10T13:22:32;31.30;55.60
56240;DHT22;42154;51.992;5.896;2023-06-10T13:25:04;31.30;55.60
56240;DHT22;42154;51.992;5.896;2023-06-10T13:27:30;31.40;54.90
56240;DHT22;42154;51.992;5.896;2023-06-10T13:29:56;31.40;55.30
56240;DHT22;42154;51.992;5.896;2023-06-10T13:32:22;31.40;54.90
56240;DHT22;42154;51.992;5.896;2023-06-10T13:34:48;31.50;54.70
56240;DHT22;42154;51.992;5.896;2023-06-10T13:37:15;31.50;54.20
56240;DHT22;42154;51.992;5.896;2023-06-10T13:39:42;31.50;54.50
56240;DHT22;42154;51.992;5.896;2023-06-10T13:42:08;31.40;54.10
56240;DHT22;42154;51.992;5.896;2023-06-10T13:44:34;31.40;54.10
56240;DHT22;42154;51.992;5.896;2023-06-10T13:47:04;31.40;54.00
56240;DHT22;42154;51.992;5.896;2023-06-10T13:49:30;31.30;54.10
56240;DHT22;42154;51.992;5.896;2023-06-10T13:51:56;31.30;53.70
56240;DHT22;42154;51.992;5.896;2023-06-10T13:54:22;31.40;53.90
56240;DHT22;42154;51.992;5.896;2023-06-10T13:56:48;31.30;53.50
56240;DHT22;42154;51.992;5.896;2023-06-10T13:59:14;31.30;53.60
56240;DHT22;42154;51.992;5.896;2023-06-10T14:01:40;31.30;54.40
56240;DHT22;42154;51.992;5.896;2023-06-10T14:04:06;31.30;54.30
56240;DHT22;42154;51.992;5.896;2023-06-10T14:06:33;31.30;54.20
56240;DHT22;42154;51.992;5.896;2023-06-10T14:08:59;31.30;54.60
56240;DHT22;42154;51.992;5.896;2023-06-10T14:11:25;31.40;54.20
56240;DHT22;42154;51.992;5.896;2023-06-10T14:13:51;31.40;54.40
56240;DHT22;42154;51.992;5.896;2023-06-10T14:16:17;31.30;54.30
56240;DHT22;42154;51.992;5.896;2023-06-10T14:18:42;31.30;55.10
56240;DHT22;42154;51.992;5.896;2023-06-10T14:21:08;31.40;54.80
56240;DHT22;42154;51.992;5.896;2023-06-10T14:23:34;31.50;54.20
56240;DHT22;42154;51.992;5.896;2023-06-10T14:26:00;31.60;53.80
56240;DHT22;42154;51.992;5.896;2023-06-10T14:28:28;31.60;53.90
56240;DHT22;42154;51.992;5.896;2023-06-10T14:30:54;31.60;53.90
56240;DHT22;42154;51.992;5.896;2023-06-10T14:33:20;31.70;53.50
56240;DHT22;42154;51.992;5.896;2023-06-10T14:35:46;31.70;52.80
56240;DHT22;42154;51.992;5.896;2023-06-10T14:38:12;31.50;52.20
56240;DHT22;42154;51.992;5.896;2023-06-10T14:40:37;31.30;52.50
56240;DHT22;42154;51.992;5.896;2023-06-10T14:43:03;31.30;52.90
56240;DHT22;42154;51.992;5.896;2023-06-10T14:45:41;31.40;53.30
56240;DHT22;42154;51.992;5.896;2023-06-10T14:48:07;31.40;52.80
56240;DHT22;42154;51.992;5.896;2023-06-10T14:50:35;31.40;53.20
56240;DHT22;42154;51.992;5.896;2023-06-10T14:53:00;31.40;53.70
56240;DHT22;42154;51.992;5.896;2023-06-10T14:55:26;31.40;53.40
56240;DHT22;42154;51.992;5.896;2023-06-10T14:57:52;31.50;53.60
56240;DHT22;42154;51.992;5.896;2023-06-10T15:00:18;31.50;53.70
56240;DHT22;42154;51.992;5.896;2023-06-10T15:02:49;31.60;53.70
56240;DHT22;42154;51.992;5.896;2023-06-10T15:05:16;31.60;53.20
56240;DHT22;42154;51.992;5.896;2023-06-10T15:07:42;31.60;52.90
56240;DHT22;42154;51.992;5.896;2023-06-10T15:10:09;31.60;53.30
56240;DHT22;42154;51.992;5.896;2023-06-10T15:12:35;31.60;53.10
56240;DHT22;42154;51.992;5.896;2023-06-10T15:15:01;31.60;52.40
56240;DHT22;42154;51.992;5.896;2023-06-10T15:17:27;31.60;52.90
56240;DHT22;42154;51.992;5.896;2023-06-10T15:19:53;31.50;53.40
56240;DHT22;42154;51.992;5.896;2023-06-10T15:22:19;31.60;53.90
56240;DHT22;42154;51.992;5.896;2023-06-10T15:24:45;31.70;54.00
56240;DHT22;42154;51.992;5.896;2023-06-10T15:27:11;31.60;53.60
56240;DHT22;42154;51.992;5.896;2023-06-10T15:29:36;31.40;53.40
56240;DHT22;42154;51.992;5.896;2023-06-10T15:32:02;31.20;53.40
56240;DHT22;42154;51.992;5.896;2023-06-10T15:34:28;31.20;54.00
56240;DHT22;42154;51.992;5.896;2023-06-10T15:36:53;31.20;53.90
56240;DHT22;42154;51.992;5.896;2023-06-10T15:39:19;31.20;53.90
56240;DHT22;42154;51.992;5.896;2023-06-10T15:41:45;31.30;54.40
56240;DHT22;42154;51.992;5.896;2023-06-10T15:44:11;31.30;53.90
56240;DHT22;42154;51.992;5.896;2023-06-10T15:46:37;31.40;53.70